Time;durP1;ratioP1;P1;durP2;ratioP2;P2;SDS_P1;SDS_P2;PMS_P1;PMS_P2;Temp;Humidity;BMP_temperature;BMP_pressure;BME280_temperature;BME280_humidity;BME280_pressure;Samples;Min_cycle;Max_cycle;Signal;HPM_P1;HPM_P2
2022/03/25 00:02:06;;;;;;;58.38;31.95;;;;;;;3.42;82.62;103189.06;5095039;28;20032;-76
2022/03/25 00:04:32;;;;;;;56.67;30.73;;;;;;;3.39;82.71;103186.50;5095153;28;20060;-78
2022/03/25 00:06:57;;;;;;;54.17;30.15;;;;;;;3.35;82.64;103188.34;5076940;28;20062;-78
2022/03/25 00:09:23;;;;;;;50.72;29.60;;;;;;;3.30;82.48;103183.19;5095193;28;20106;-78
2022/03/25 00:11:48;;;;;;;60.95;32.63;;;;;;;3.28;82.59;103190.22;5095062;28;20414;-79
2022/03/25 00:14:14;;;;;;;60.63;30.02;;;;;;;3.26;82.73;103180.66;5076723;28;20097;-78
2022/03/25 00:16:41;;;;;;;51.15;30.25;;;;;;;3.22;82.56;103181.63;5094754;28;20120;-77
2022/03/25 00:19:06;;;;;;;62.15;30.70;;;;;;;3.20;82.47;103184.28;5076841;28;20036;-75
2022/03/25 00:21:31;;;;;;;51.40;30.70;;;;;;;3.20;82.51;103188.69;5094807;28;20024;-77
2022/03/25 00:23:57;;;;;;;52.63;28.85;;;;;;;3.18;82.66;103194.00;5094569;28;20032;-77
2022/03/25 00:26:22;;;;;;;53.90;30.75;;;;;;;3.16;82.42;103194.03;5094712;28;20111;-77
2022/03/25 00:28:48;;;;;;;58.92;31.02;;;;;;;3.14;82.43;103192.31;5076499;28;20028;-77
2022/03/25 00:31:13;;;;;;;53.85;28.48;;;;;;;3.12;82.34;103194.09;5095008;28;20036;-79
2022/03/25 00:33:39;;;;;;;60.10;30.90;;;;;;;3.08;82.25;103193.31;5094967;28;20032;-79
2022/03/25 00:36:05;;;;;;;52.00;30.30;;;;;;;3.05;82.11;103190.75;5094512;28;20036;-79
2022/03/25 00:38:31;;;;;;;58.90;31.70;;;;;;;3.04;82.44;103188.16;5076446;28;20032;-79
2022/03/25 00:40:57;;;;;;;57.80;31.63;;;;;;;3.01;82.52;103189.06;5076300;28;20082;-79
2022/03/25 00:43:24;;;;;;;56.28;31.95;;;;;;;2.99;82.34;103191.75;5094356;28;20039;-78
2022/03/25 00:45:51;;;;;;;60.30;30.25;;;;;;;2.96;82.56;103181.28;5094057;28;20071;-79
2022/03/25 00:48:17;;;;;;;55.35;30.75;;;;;;;2.96;82.69;103194.44;5094433;28;20468;-79
2022/03/25 00:50:42;;;;;;;52.97;30.02;;;;;;;2.95;82.77;103197.09;5095083;28;20028;-78
2022/03/25 00:53:08;;;;;;;55.60;30.45;;;;;;;2.91;83.13;103198.06;5094520;28;20456;-79
2022/03/25 00:55:34;;;;;;;58.58;31.15;;;;;;;2.89;82.95;103190.19;5076391;28;20440;-79
2022/03/25 00:58:00;;;;;;;56.25;30.70;;;;;;;2.88;82.96;103196.38;5094427;28;20036;-79
2022/03/25 01:00:26;;;;;;;65.88;31.55;;;;;;;2.87;83.03;103192.00;5094068;28;20028;-79
2022/03/25 01:02:52;;;;;;;55.30;31.20;;;;;;;2.86;83.25;103192.03;5059336;28;20035;-78
2022/03/25 01:05:17;;;;;;;62.78;32.08;;;;;;;2.82;82.90;103194.72;5093506;28;20032;-79
2022/03/25 01:07:44;;;;;;;56.53;32.00;;;;;;;2.81;82.87;103186.88;5093675;28;20115;-78
2022/03/25 01:10:10;;;;;;;59.35;32.03;;;;;;;2.80;83.03;103187.75;5094263;28;20103;-79
2022/03/25 01:12:36;;;;;;;63.47;34.08;;;;;;;2.77;82.93;103186.03;5093991;28;20051;-78
2022/03/25 01:15:01;;;;;;;59.70;32.65;;;;;;;2.74;83.06;103190.50;5094055;28;20032;-78
2022/03/25 01:17:27;;;;;;;54.90;31.67;;;;;;;2.71;83.12;103190.56;5093638;28;20043;-78
2022/03/25 01:19:53;;;;;;;54.28;31.83;;;;;;;2.67;83.06;103189.75;5094316;28;20081;-78
2022/03/25 01:22:18;;;;;;;58.97;31.75;;;;;;;2.65;83.19;103191.56;5093737;28;20038;-78
2022/03/25 01:24:43;;;;;;;62.65;30.88;;;;;;;2.63;83.18;103196.00;5093337;28;20031;-78
2022/03/25 01:27:09;;;;;;;58.42;32.67;;;;;;;2.60;83.10;103190.78;5093326;28;20484;-78
2022/03/25 01:29:35;;;;;;;55.95;30.50;;;;;;;2.56;83.40;103195.22;5093832;28;20096;-78
2022/03/25 01:32:01;;;;;;;63.58;31.58;;;;;;;2.52;83.26;103187.44;5075787;28;20421;-78
2022/03/25 01:34:27;;;;;;;57.47;33.33;;;;;;;2.49;83.48;103190.13;5093368;28;20534;-77
2022/03/25 01:36:53;;;;;;;62.65;31.73;;;;;;;2.46;83.92;103194.56;5093779;28;20025;-78
2022/03/25 01:39:18;;;;;;;57.55;32.60;;;;;;;2.43;84.09;103189.34;5093336;28;20028;-76
2022/03/25 01:41:47;;;;;;;58.22;32.15;;;;;;;2.41;84.08;103191.13;5093071;28;20135;-78
2022/03/25 01:44:13;;;;;;;56.95;31.33;;;;;;;2.38;84.29;103182.44;5093115;28;20028;-78
2022/03/25 01:46:39;;;;;;;54.03;30.52;;;;;;;2.33;84.30;103187.78;5093718;28;20031;-78
2022/03/25 01:49:05;;;;;;;59.85;32.03;;;;;;;2.30;84.56;103182.59;5093359;28;20024;-78
2022/03/25 01:51:36;;;;;;;62.17;32.33;;;;;;;2.25;84.33;103189.69;5096343;28;20505;-78
2022/03/25 01:54:04;;;;;;;64.18;32.13;;;;;;;2.21;84.43;103193.25;5100107;28;20035;-78
2022/03/25 01:56:30;;;;;;;59.03;32.05;;;;;;;2.16;84.58;103193.31;5099807;28;20024;-77
2022/03/25 01:58:55;;;;;;;55.38;32.42;;;;;;;2.12;84.46;103191.66;5099844;28;20042;-77
2022/03/25 02:01:21;;;;;;;59.70;34.60;;;;;;;2.10;84.53;103190.81;5099985;28;20035;-76
2022/03/25 02:03:46;;;;;;;63.10;33.80;;;;;;;2.07;84.63;103198.75;5099989;28;20030;-77
2022/03/25 02:06:12;;;;;;;63.22;33.50;;;;;;;2.04;84.55;103190.91;5099525;28;20040;-78
2022/03/25 02:08:37;;;;;;;62.33;32.40;;;;;;;2.00;84.80;103190.13;5099822;28;20032;-78
2022/03/25 02:11:02;;;;;;;61.53;33.50;;;;;;;1.97;84.58;103187.53;5099705;28;20126;-78
2022/03/25 02:13:28;;;;;;;66.13;34.80;;;;;;;1.94;84.80;103188.47;5100599;28;20040;-77
2022/03/25 02:15:54;;;;;;;66.45;36.15;;;;;;;1.91;84.72;103190.25;5099539;28;20032;-78
2022/03/25 02:18:19;;;;;;;66.45;33.55;;;;;;;1.88;84.83;103190.31;5082324;28;20031;-78
2022/03/25 02:20:46;;;;;;;68.28;36.08;;;;;;;1.85;84.55;103192.97;5099764;28;20074;-78
2022/03/25 02:23:12;;;;;;;68.63;35.67;;;;;;;1.84;84.77;103191.28;5099825;28;20039;-78
2022/03/25 02:25:39;;;;;;;66.28;34.50;;;;;;;1.80;84.74;103189.56;5099380;28;20031;-77
2022/03/25 02:28:05;;;;;;;72.85;36.15;;;;;;;1.77;85.29;103182.59;5099970;28;20571;-77
2022/03/25 02:30:32;;;;;;;63.45;33.85;;;;;;;1.74;85.09;103190.53;5099666;28;20028;-77
2022/03/25 02:33:01;;;;;;;64.63;35.33;;;;;;;1.71;84.68;103188.81;5081592;28;20039;-77
2022/03/25 02:35:42;;;;;;;66.13;36.50;;;;;;;1.69;85.06;103193.22;5099895;28;20112;-77
2022/03/25 02:38:09;;;;;;;65.65;34.67;;;;;;;1.66;85.25;103188.03;5099798;28;20035;-78
2022/03/25 02:40:35;;;;;;;69.20;35.92;;;;;;;1.63;85.33;103185.47;5100215;28;20521;-77
2022/03/25 02:43:00;;;;;;;68.55;36.78;;;;;;;1.60;85.26;103182.88;5081425;28;20055;-78
2022/03/25 02:45:26;;;;;;;71.68;37.38;;;;;;;1.57;85.31;103182.94;5099730;28;20060;-78
2022/03/25 02:47:51;;;;;;;71.28;36.55;;;;;;;1.54;85.44;103193.47;5099631;28;20028;-78
2022/03/25 02:50:16;;;;;;;71.97;36.72;;;;;;;1.51;85.49;103186.50;5100096;28;20035;-78
2022/03/25 02:52:42;;;;;;;72.50;37.65;;;;;;;1.48;85.28;103189.19;5099514;28;20097;-79
2022/03/25 02:55:08;;;;;;;72.80;37.65;;;;;;;1.47;85.55;103189.19;5099249;28;20042;-78
2022/03/25 02:57:35;;;;;;;72.63;40.05;;;;;;;1.45;85.83;103196.22;5099457;28;20115;-78
2022/03/25 03:00:01;;;;;;;75.63;39.40;;;;;;;1.40;85.81;103188.41;5099470;28;20036;-77
2022/03/25 03:02:26;;;;;;;80.40;40.05;;;;;;;1.39;85.95;103195.44;5097421;28;20030;-76
2022/03/25 03:04:53;;;;;;;72.93;38.78;;;;;;;1.38;86.24;103201.53;5095457;28;20488;-77
2022/03/25 03:07:18;;;;;;;74.85;40.15;;;;;;;1.35;86.30;103180.59;5061313;28;20079;-78
2022/03/25 03:09:44;;;;;;;76.35;40.33;;;;;;;1.33;86.40;103178.88;5077886;28;20032;-77
2022/03/25 03:12:10;;;;;;;80.47;40.00;;;;;;;1.31;86.60;103186.78;5095475;28;20495;-78
2022/03/25 03:14:36;;;;;;;80.70;41.15;;;;;;;1.29;86.66;103193.81;5096195;28;20055;-78
2022/03/25 03:17:02;;;;;;;78.72;38.58;;;;;;;1.24;86.60;103190.41;5077905;28;20036;-78
2022/03/25 03:19:27;;;;;;;81.70;40.70;;;;;;;1.21;86.68;103186.06;5096180;28;20119;-76
2022/03/25 03:21:53;;;;;;;81.55;41.80;;;;;;;1.19;86.65;103189.56;5096193;28;20067;-78
2022/03/25 03:24:18;;;;;;;82.97;43.15;;;;;;;1.17;86.74;103188.75;5097081;28;20039;-79
2022/03/25 03:26:44;;;;;;;80.35;40.72;;;;;;;1.15;86.77;103182.63;5098579;28;20540;-79
2022/03/25 03:29:09;;;;;;;87.80;43.47;;;;;;;1.12;86.84;103182.69;5099941;28;20385;-78
2022/03/25 03:31:35;;;;;;;83.72;42.15;;;;;;;1.10;86.77;103187.09;5097805;28;20078;-78
2022/03/25 03:34:00;;;;;;;81.78;43.20;;;;;;;1.07;86.85;103185.38;5097873;28;20032;-79
2022/03/25 03:36:26;;;;;;;84.93;42.13;;;;;;;1.02;86.93;103182.81;5098744;28;20473;-78
2022/03/25 03:38:51;;;;;;;81.10;42.15;;;;;;;1.00;86.87;103184.59;5098076;28;20024;-79
2022/03/25 03:41:16;;;;;;;90.15;44.10;;;;;;;0.98;86.97;103180.25;5097615;28;20031;-78
2022/03/25 03:43:42;;;;;;;85.28;42.40;;;;;;;0.94;87.04;103178.53;5095636;28;20024;-78
2022/03/25 03:46:08;;;;;;;88.25;43.03;;;;;;;0.90;87.25;103180.34;5095479;28;20472;-78
2022/03/25 03:48:33;;;;;;;84.07;42.63;;;;;;;0.88;87.51;103182.09;5095282;28;20071;-76
2022/03/25 03:50:59;;;;;;;87.65;44.70;;;;;;;0.85;87.53;103184.75;5095294;28;20063;-78
2022/03/25 03:53:24;;;;;;;89.13;44.90;;;;;;;0.82;87.67;103187.41;5077938;28;20058;-78
2022/03/25 03:55:49;;;;;;;87.97;44.95;;;;;;;0.81;87.51;103177.84;5077366;28;20044;-78
2022/03/25 03:58:15;;;;;;;89.25;44.20;;;;;;;0.78;87.69;103183.97;5095421;28;20194;-77
2022/03/25 04:00:40;;;;;;;83.40;42.95;;;;;;;0.77;87.99;103184.84;5094877;28;20028;-77
2022/03/25 04:03:06;;;;;;;94.68;44.70;;;;;;;0.76;87.99;103187.50;5094791;28;20032;-77
2022/03/25 04:05:31;;;;;;;93.57;44.65;;;;;;;0.75;88.45;103184.03;5095226;28;20064;-77
2022/03/25 04:07:56;;;;;;;90.20;44.92;;;;;;;0.74;88.50;103184.03;5095032;28;20357;-77
2022/03/25 04:10:22;;;;;;;90.95;45.03;;;;;;;0.72;88.75;103189.31;5077065;28;20109;-77
2022/03/25 04:12:47;;;;;;;90.22;44.63;;;;;;;0.69;88.88;103191.97;5095619;28;20051;-77
2022/03/25 04:15:15;;;;;;;95.18;44.38;;;;;;;0.67;89.03;103191.09;5094397;28;20036;-78
2022/03/25 04:17:42;;;;;;;93.75;45.65;;;;;;;0.64;88.92;103199.88;5094723;28;20072;-77
2022/03/25 04:20:09;;;;;;;89.70;47.40;;;;;;;0.63;88.81;103197.28;5094920;28;20043;-77
2022/03/25 04:22:35;;;;;;;91.35;45.20;;;;;;;0.59;89.13;103192.94;5094601;28;20035;-76
2022/03/25 04:25:01;;;;;;;95.47;45.15;;;;;;;0.58;88.70;103201.69;5094638;28;20023;-78
2022/03/25 04:27:26;;;;;;;95.18;46.65;;;;;;;0.56;89.03;103190.34;5077063;28;20487;-77
2022/03/25 04:29:52;;;;;;;104.18;46.70;;;;;;;0.55;88.96;103199.94;5095050;28;20468;-78
2022/03/25 04:32:17;;;;;;;95.72;45.65;;;;;;;0.52;88.97;103192.13;5094909;28;20020;-77
2022/03/25 04:34:43;;;;;;;91.07;44.63;;;;;;;0.51;89.04;103195.66;5076981;28;20036;-76
2022/03/25 04:37:09;;;;;;;94.70;47.15;;;;;;;0.49;89.04;103197.41;5094497;28;20024;-77
2022/03/25 04:39:35;;;;;;;92.43;46.00;;;;;;;0.46;89.29;103197.44;5094401;28;20028;-77
2022/03/25 04:42:00;;;;;;;101.72;46.83;;;;;;;0.42;89.21;103196.59;5076767;28;20028;-77
2022/03/25 04:44:26;;;;;;;95.95;44.92;;;;;;;0.40;89.34;103192.25;5094330;28;20119;-77
2022/03/25 04:46:53;;;;;;;91.72;44.75;;;;;;;0.38;89.70;103204.50;5094625;28;20058;-80
2022/03/25 04:49:18;;;;;;;91.68;46.45;;;;;;;0.34;89.80;103201.94;5094726;28;20032;-78
2022/03/25 04:51:43;;;;;;;95.90;46.45;;;;;;;0.33;89.79;103202.81;5093874;28;20505;-77
2022/03/25 04:54:09;;;;;;;89.68;46.65;;;;;;;0.31;89.43;103203.69;5094549;28;20047;-78
2022/03/25 04:56:36;;;;;;;102.13;47.78;;;;;;;0.28;89.31;103201.97;5076751;28;20039;-78
2022/03/25 04:59:02;;;;;;;102.40;48.85;;;;;;;0.26;89.30;103200.25;5076604;28;20024;-78
2022/03/25 05:01:27;;;;;;;108.55;48.00;;;;;;;0.24;89.26;103208.13;5094357;28;20051;-78
2022/03/25 05:03:53;;;;;;;99.63;47.72;;;;;;;0.24;89.76;103208.13;5093893;28;20449;-79
2022/03/25 05:06:18;;;;;;;102.05;48.58;;;;;;;0.23;89.41;103206.38;5093654;28;20051;-77
2022/03/25 05:08:43;;;;;;;101.85;49.42;;;;;;;0.22;89.55;103215.13;5094041;28;20036;-77
2022/03/25 05:11:09;;;;;;;100.18;48.05;;;;;;;0.22;89.75;103209.03;5075765;28;20483;-78
2022/03/25 05:13:35;;;;;;;106.97;50.53;;;;;;;0.21;89.47;103207.28;5076099;28;20043;-78
2022/03/25 05:16:00;;;;;;;109.72;51.90;;;;;;;0.22;89.72;103217.72;5094180;28;20460;-78
2022/03/25 05:18:25;;;;;;;105.10;51.25;;;;;;;0.22;89.70;103215.13;5093903;28;20067;-78
2022/03/25 05:20:51;;;;;;;109.93;52.05;;;;;;;0.20;89.98;103209.03;5076287;28;20445;-77
2022/03/25 05:23:16;;;;;;;107.35;51.72;;;;;;;0.20;89.98;103216.03;5094435;28;20123;-78
2022/03/25 05:25:42;;;;;;;111.35;53.42;;;;;;;0.19;90.04;103214.28;5092588;28;20035;-75
2022/03/25 05:28:07;;;;;;;108.88;52.63;;;;;;;0.19;90.53;103211.66;5093600;28;20485;-77
2022/03/25 05:30:34;;;;;;;114.07;52.65;;;;;;;0.19;90.21;103214.28;5093867;28;20032;-77
2022/03/25 05:32:59;;;;;;;115.05;53.50;;;;;;;0.19;90.53;103216.91;5093445;28;20430;-78
2022/03/25 05:35:27;;;;;;;112.15;53.47;;;;;;;0.20;90.97;103224.75;5058898;28;20040;-78
2022/03/25 05:37:53;;;;;;;124.05;54.92;;;;;;;0.21;90.74;103223.88;5093692;28;20510;-78
2022/03/25 05:40:20;;;;;;;114.85;54.40;;;;;;;0.24;90.97;103221.22;5093481;28;20064;-78
2022/03/25 05:42:47;;;;;;;115.07;53.00;;;;;;;0.26;91.23;103229.94;5093300;28;20472;-75
2022/03/25 05:45:14;;;;;;;115.13;54.35;;;;;;;0.28;91.80;103222.91;5093046;28;20085;-78
2022/03/25 05:47:40;;;;;;;128.55;55.15;;;;;;;0.32;91.75;103223.78;5093188;28;20365;-78
2022/03/25 05:50:07;;;;;;;124.28;55.33;;;;;;;0.34;92.06;103224.63;5093459;28;20063;-77
2022/03/25 05:52:34;;;;;;;124.22;56.22;;;;;;;0.36;92.01;103220.25;5094248;28;20068;-78
2022/03/25 05:54:59;;;;;;;131.43;58.42;;;;;;;0.42;92.36;103219.28;5093087;28;20535;-78
2022/03/25 05:57:25;;;;;;;143.02;58.55;;;;;;;0.47;92.68;103225.38;5075199;28;20103;-78
2022/03/25 05:59:50;;;;;;;135.63;58.42;;;;;;;0.52;93.05;103227.06;5058381;28;20036;-77
2022/03/25 06:02:16;;;;;;;134.50;61.08;;;;;;;0.56;93.02;103222.66;5075566;28;20487;-77
2022/03/25 06:04:41;;;;;;;119.47;56.13;;;;;;;0.63;93.08;103226.09;5093194;28;20028;-77
2022/03/25 06:07:07;;;;;;;121.70;57.03;;;;;;;0.68;93.23;103226.91;5093186;28;20031;-78
2022/03/25 06:09:32;;;;;;;133.48;59.33;;;;;;;0.75;93.27;103228.56;5075534;28;20028;-78
2022/03/25 06:11:58;;;;;;;135.02;60.22;;;;;;;0.83;93.57;103233.72;5074799;28;20431;-78
2022/03/25 06:14:25;;;;;;;145.38;65.25;;;;;;;0.92;93.76;103238.00;5075561;28;20032;-78
2022/03/25 06:16:51;;;;;;;138.48;63.75;;;;;;;1.00;94.30;103230.91;5093083;28;20039;-75
2022/03/25 06:19:17;;;;;;;151.45;65.05;;;;;;;1.11;94.62;103242.13;5092787;28;20036;-77
2022/03/25 06:21:43;;;;;;;143.48;62.67;;;;;;;1.19;95.22;103249.91;5093032;28;20031;-77
2022/03/25 06:24:08;;;;;;;153.50;68.97;;;;;;;1.32;95.55;103237.50;5075098;28;20126;-78
2022/03/25 06:26:33;;;;;;;156.60;70.05;;;;;;;1.42;95.98;103249.63;5093290;28;20028;-79
2022/03/25 06:28:59;;;;;;;155.27;68.10;;;;;;;1.53;96.39;103252.09;5093710;28;20062;-77
2022/03/25 06:31:25;;;;;;;176.68;76.60;;;;;;;1.71;96.59;103256.19;5075293;28;20034;-78
2022/03/25 06:33:50;;;;;;;189.05;78.97;;;;;;;1.89;97.31;103247.19;5093151;28;20032;-76
2022/03/25 06:36:15;;;;;;;169.88;77.10;;;;;;;2.05;97.65;103250.44;5075445;28;20123;-78
2022/03/25 06:38:42;;;;;;;183.40;77.30;;;;;;;2.19;98.39;103258.09;5096740;28;20448;-79
2022/03/25 06:41:09;;;;;;;195.55;83.43;;;;;;;2.37;98.94;103259.53;5096967;28;20460;-78
2022/03/25 06:43:35;;;;;;;173.25;76.90;;;;;;;2.52;99.25;103261.03;5097317;28;20024;-79
2022/03/25 06:46:00;;;;;;;184.30;80.07;;;;;;;2.68;99.39;103262.47;5078518;28;20098;-78
2022/03/25 06:48:26;;;;;;;185.07;77.63;;;;;;;2.85;99.62;103263.91;5097340;28;20043;-78
2022/03/25 06:50:53;;;;;;;176.07;79.30;;;;;;;2.98;99.72;103265.41;5096542;28;20043;-79
2022/03/25 06:53:19;;;;;;;167.95;76.40;;;;;;;3.10;99.42;103269.56;5096373;28;20031;-79
2022/03/25 06:55:44;;;;;;;164.63;75.05;;;;;;;3.20;99.49;103263.22;5096516;28;20388;-79
2022/03/25 06:58:11;;;;;;;165.48;75.63;;;;;;;3.32;99.04;103257.69;5096724;28;20135;-78
2022/03/25 07:00:37;;;;;;;173.82;75.93;;;;;;;3.45;99.06;103260.94;5078614;28;20036;-79
2022/03/25 07:03:04;;;;;;;152.80;72.00;;;;;;;3.59;99.01;103267.66;5096203;28;20036;-78
2022/03/25 07:05:30;;;;;;;169.80;75.03;;;;;;;3.76;98.75;103283.06;5096393;28;20024;-80
2022/03/25 07:07:56;;;;;;;148.95;73.07;;;;;;;3.91;98.64;103284.50;5096172;28;20032;-76
2022/03/25 07:10:23;;;;;;;155.10;74.35;;;;;;;4.08;98.38;103282.34;5096642;28;20032;-79
2022/03/25 07:12:51;;;;;;;145.15;70.22;;;;;;;4.24;98.18;103281.03;5096385;28;20044;-79
2022/03/25 07:15:16;;;;;;;140.85;69.75;;;;;;;4.39;97.82;103281.59;5061084;28;20094;-77
2022/03/25 07:17:43;;;;;;;140.68;71.28;;;;;;;4.53;97.06;103276.78;5078549;28;20024;-80
2022/03/25 07:20:13;;;;;;;129.48;67.32;;;;;;;4.68;95.92;103283.44;5095855;28;20047;-79
2022/03/25 07:22:42;;;;;;;126.40;65.38;;;;;;;4.83;95.02;103282.16;5096281;28;20059;-82
2022/03/25 07:25:09;;;;;;;122.07;64.60;;;;;;;4.98;93.50;103291.44;5096230;28;20040;-80
2022/03/25 07:27:35;;;;;;;121.63;64.32;;;;;;;5.14;92.39;103291.00;5096251;28;20051;-77
2022/03/25 07:30:00;;;;;;;113.78;62.53;;;;;;;5.26;91.03;103288.00;5077714;28;20468;-79
2022/03/25 07:32:26;;;;;;;127.50;63.40;;;;;;;5.41;89.57;103297.25;5095893;28;20039;-79
2022/03/25 07:34:51;;;;;;;112.97;62.05;;;;;;;5.55;88.60;103297.69;5077719;28;20032;-80
2022/03/25 07:37:17;;;;;;;116.82;62.25;;;;;;;5.70;87.79;103299.00;5095854;28;20078;-79
2022/03/25 07:39:44;;;;;;;114.47;60.78;;;;;;;5.88;87.26;103308.16;5095712;28;20036;-80
2022/03/25 07:42:09;;;;;;;110.43;58.83;;;;;;;6.06;86.54;103308.50;5095899;28;20024;-78
2022/03/25 07:44:36;;;;;;;99.70;60.35;;;;;;;6.31;85.52;103308.56;5077732;28;20130;-77
2022/03/25 07:47:01;;;;;;;111.03;60.22;;;;;;;6.55;84.40;103306.03;5095562;28;20036;-76
2022/03/25 07:49:27;;;;;;;98.68;58.25;;;;;;;6.74;82.63;103314.19;5076270;28;20124;-77
2022/03/25 07:51:53;;;;;;;107.70;58.08;;;;;;;6.95;82.27;103316.06;5060359;28;20067;-77
2022/03/25 07:54:18;;;;;;;96.75;56.00;;;;;;;7.14;80.66;103310.97;5095252;28;20036;-77
2022/03/25 07:56:43;;;;;;;98.07;55.38;;;;;;;7.35;79.40;103319.06;5095194;28;20032;-77
2022/03/25 07:59:09;;;;;;;98.53;56.75;;;;;;;7.64;78.26;103320.59;5095307;28;20032;-78
2022/03/25 08:01:34;;;;;;;91.88;54.80;;;;;;;8.02;75.98;103315.56;5095397;28;20098;-83
2022/03/25 08:04:00;;;;;;;94.47;54.50;;;;;;;8.34;74.11;103321.34;5095039;28;20122;-82
2022/03/25 08:06:25;;;;;;;85.43;54.63;;;;;;;8.69;73.16;103327.00;5095022;28;20066;-78
2022/03/25 08:08:51;;;;;;;86.07;51.25;;;;;;;9.25;70.30;103329.84;5077089;28;20108;-77
2022/03/25 08:11:20;;;;;;;88.80;54.22;;;;;;;9.81;67.12;103334.34;5076765;28;20056;-82
2022/03/25 08:13:47;;;;;;;88.60;53.70;;;;;;;10.37;65.62;103342.31;5095259;28;20044;-81
2022/03/25 08:16:14;;;;;;;88.38;51.63;;;;;;;10.83;64.09;103339.13;5076825;28;20093;-83
2022/03/25 08:18:39;;;;;;;78.93;50.88;;;;;;;11.11;60.80;103341.19;5095407;28;20032;-83
2022/03/25 08:21:06;;;;;;;87.05;50.20;;;;;;;11.20;59.67;103351.34;5095458;28;20038;-78
2022/03/25 08:29:00;;;;;;;77.10;47.42;;;;;;;11.17;58.35;103343.53;5094656;28;20090;-83
2022/03/25 08:31:25;;;;;;;70.22;46.03;;;;;;;11.16;57.62;103347.13;5094925;28;20147;-83
2022/03/25 08:33:51;;;;;;;78.45;47.95;;;;;;;11.23;56.90;103353.00;5076765;28;20388;-83
2022/03/25 08:36:17;;;;;;;73.43;45.80;;;;;;;11.27;56.11;103344.75;5095204;28;20042;-82
2022/03/25 08:38:43;;;;;;;68.03;45.33;;;;;;;11.47;56.68;103351.66;5094616;28;20028;-85
2022/03/25 08:41:09;;;;;;;75.65;45.58;;;;;;;11.69;54.71;103350.50;5094832;28;20028;-76
2022/03/25 08:43:35;;;;;;;70.63;44.22;;;;;;;12.06;53.84;103352.91;5095012;28;20061;-83
2022/03/25 08:46:01;;;;;;;71.13;43.88;;;;;;;12.52;51.51;103342.25;5076721;28;20056;-84
2022/03/25 08:48:27;;;;;;;70.07;44.08;;;;;;;12.96;49.82;103353.91;5095067;28;20032;-83
2022/03/25 08:50:53;;;;;;;66.45;42.92;;;;;;;13.45;48.51;103353.56;5094880;28;20514;-77
2022/03/25 08:53:19;;;;;;;61.55;42.60;;;;;;;13.99;47.10;103350.09;5094970;28;20028;-78
2022/03/25 08:55:45;;;;;;;58.63;42.00;;;;;;;14.97;44.68;103347.13;5093896;28;20125;-78
2022/03/25 08:58:11;;;;;;;66.10;41.45;;;;;;;15.68;42.86;103347.47;5094491;28;20115;-78
2022/03/25 09:00:37;;;;;;;56.90;40.92;;;;;;;16.02;41.48;103345.88;5075325;28;20116;-82
2022/03/25 09:03:03;;;;;;;59.03;41.05;;;;;;;16.51;40.23;103348.50;5094125;28;20071;-78
2022/03/25 09:05:28;;;;;;;59.05;40.08;;;;;;;17.26;37.43;103349.91;5094136;28;20055;-81
2022/03/25 09:07:54;;;;;;;62.53;40.55;;;;;;;17.74;36.89;103364.91;5077505;28;20036;-83
2022/03/25 09:10:19;;;;;;;54.10;37.17;;;;;;;18.26;35.75;103355.22;5095746;28;20036;-82
2022/03/25 09:12:45;;;;;;;56.55;37.53;;;;;;;18.73;33.72;103365.63;5095824;28;20120;-81
2022/03/25 09:15:15;;;;;;;54.05;35.97;;;;;;;19.12;34.42;103357.81;5096280;28;20027;-81
2022/03/25 09:17:45;;;;;;;54.33;36.65;;;;;;;19.98;31.51;103362.78;5098034;28;20036;-78
2022/03/25 09:20:11;;;;;;;52.40;37.28;;;;;;;20.24;30.95;103351.41;5100149;28;20030;-81
2022/03/25 09:22:37;;;;;;;49.60;35.08;;;;;;;20.96;29.72;103355.47;5085005;28;20036;-80
2022/03/25 09:25:04;;;;;;;56.75;36.15;;;;;;;21.23;28.49;103361.06;5084264;28;20032;-77
2022/03/25 09:27:30;;;;;;;48.28;34.72;;;;;;;21.11;30.22;103361.25;5095006;28;20099;-81
2022/03/25 09:29:55;;;;;;;48.05;32.08;;;;;;;22.02;27.04;103359.66;5094469;28;20082;-79
2022/03/25 09:32:21;;;;;;;44.33;31.42;;;;;;;21.90;27.36;103356.31;5094214;28;20471;-81
2022/03/25 09:37:30;;;;;;;50.55;33.38;;;;;;;21.40;28.40;103354.84;5093768;28;20399;-79
2022/03/25 09:39:55;;;;;;;49.28;32.42;;;;;;;21.04;28.91;103354.72;5075672;28;20032;-81
2022/03/25 09:42:21;;;;;;;44.42;31.98;;;;;;;21.22;28.47;103359.38;5093770;28;20110;-78
2022/03/25 09:44:49;;;;;;;46.78;31.90;;;;;;;21.80;26.54;103356.38;5093289;28;20070;-79
2022/03/25 09:47:16;;;;;;;40.15;30.08;;;;;;;21.49;27.62;103355.81;5093777;28;20031;-77
2022/03/25 09:49:42;;;;;;;42.15;27.30;;;;;;;22.40;25.77;103351.38;5093613;28;20024;-78
2022/03/25 09:52:08;;;;;;;45.33;29.38;;;;;;;22.57;25.24;103355.06;5093464;28;20028;-76
2022/03/25 09:54:34;;;;;;;44.10;28.58;;;;;;;22.42;25.60;103355.63;5092911;28;20068;-79
2022/03/25 09:57:00;;;;;;;41.80;29.35;;;;;;;22.97;23.96;103350.91;5093823;28;20038;-80
2022/03/25 09:59:26;;;;;;;45.30;27.02;;;;;;;22.81;25.17;103355.25;5093031;28;20067;-79
2022/03/25 10:01:51;;;;;;;37.40;25.92;;;;;;;21.80;24.46;103348.25;5093966;28;20415;-76
2022/03/25 10:04:43;;;;;;;40.83;25.23;;;;;;;22.09;25.03;103352.59;5092929;28;20032;-75
2022/03/25 10:07:18;;;;;;;34.55;22.70;;;;;;;22.67;23.03;103350.38;5093214;28;20024;-79
2022/03/25 10:09:45;;;;;;;32.60;23.85;;;;;;;22.53;23.50;103358.09;5093396;28;20032;-77
2022/03/25 10:12:26;;;;;;;44.83;25.83;;;;;;;22.69;23.69;103357.38;5093649;28;20056;-79
2022/03/25 10:15:13;;;;;;;36.92;24.60;;;;;;;22.82;24.01;103353.38;5078872;28;20028;-76
2022/03/25 10:17:56;;;;;;;35.28;25.38;;;;;;;22.85;23.17;103353.88;5097210;28;20020;-78
2022/03/25 10:20:27;;;;;;;39.00;23.67;;;;;;;22.54;24.61;103350.78;5097309;28;20054;-83
2022/03/25 10:23:19;;;;;;;34.75;24.88;;;;;;;22.93;22.66;103336.81;5097828;28;20101;-79
2022/03/25 10:25:48;;;;;;;38.85;25.60;;;;;;;23.26;22.28;103341.56;5085744;28;20040;-76
2022/03/25 10:28:47;;;;;;;41.30;25.90;;;;;;;23.24;22.69;103339.91;5096715;28;20484;-83
2022/03/25 10:31:15;;;;;;;37.53;25.58;;;;;;;23.30;24.01;103337.53;5097332;28;20024;-80
2022/03/25 10:33:58;;;;;;;37.53;25.27;;;;;;;23.40;21.92;103333.66;5096697;28;20095;-81
2022/03/25 10:36:25;;;;;;;40.10;22.95;;;;;;;22.94;22.36;103335.78;5096887;28;20078;-78
2022/03/25 10:38:55;;;;;;;29.52;21.58;;;;;;;22.77;21.45;103343.00;5078937;28;20036;-79
2022/03/25 10:41:23;;;;;;;32.88;21.80;;;;;;;23.91;19.44;103333.63;5079935;28;20039;-77
2022/03/25 10:44:05;;;;;;;39.08;22.45;;;;;;;23.73;19.60;103341.91;5096744;28;20460;-77
2022/03/25 10:46:40;;;;;;;32.25;22.88;;;;;;;22.50;21.79;103342.13;5096897;28;20086;-79
2022/03/25 10:49:11;;;;;;;35.67;23.50;;;;;;;22.60;22.11;103335.75;5097139;28;20456;-78
2022/03/25 10:51:57;;;;;;;37.85;21.98;;;;;;;22.93;21.64;103328.69;5097177;28;20182;-82
2022/03/25 10:54:25;;;;;;;48.92;22.48;;;;;;;23.86;20.42;103333.31;5096750;28;20117;-79
2022/03/25 10:56:53;;;;;;;34.90;22.92;;;;;;;24.18;20.23;103337.06;5096058;28;20028;-84
2022/03/25 10:59:32;;;;;;;33.58;22.55;;;;;;;23.86;19.29;103330.59;5096756;28;20095;-77
2022/03/25 11:02:06;;;;;;;36.38;21.58;;;;;;;23.46;20.77;103328.59;5096577;28;20024;-75
2022/03/25 11:04:32;;;;;;;34.00;20.55;;;;;;;23.90;18.77;103329.25;5096197;28;20103;-78
2022/03/25 11:06:58;;;;;;;29.13;21.40;;;;;;;23.05;20.85;103332.81;5096579;28;20169;-77
2022/03/25 11:09:26;;;;;;;29.73;20.70;;;;;;;23.41;21.14;103327.22;5096221;28;20451;-81
2022/03/25 11:11:52;;;;;;;33.85;20.23;;;;;;;23.54;20.42;103325.88;5078168;28;20048;-80
2022/03/25 11:14:19;;;;;;;34.53;21.88;;;;;;;24.07;19.38;103330.09;5096647;28;20028;-78
2022/03/25 11:16:56;;;;;;;29.23;21.05;;;;;;;24.06;19.08;103322.94;5096128;28;20063;-76
2022/03/25 11:19:22;;;;;;;29.95;21.08;;;;;;;23.91;19.92;103322.75;5096594;28;20028;-74